Ouarzazate, Morocco
Current Conditions -  °F | °C
As of 3:00 AM on Tuesday 23 Dec 2014 (Local Time) from GMMZ Reporting Station
Clear Clear  
Wind Chill: 46°   Ceiling: Unl
Heat Index: 46°   Visibility: 6mi
Dew Point: 34°   Wind: 3mph
Humidity: 62%   Direction: NA
Pressure: 30.42"   Gusts: NA
Location:  30.92°N, 6.9°W
Report Text: GMMZ 230200Z VRB03KT CAVOK 08/01 Q1030 NOSIG
Loading
Personal Weather Stations






























Interactive Weather Map New forecast layout! Learn more

10-Day Weather Forecast

Advertisements
Track Severe Weather on mobile